createdAt,value
2023-02-28T00:00:37.020Z,101604.38
2023-02-28T00:05:39.112Z,101605.44
2023-02-28T00:10:40.580Z,101599.22
2023-02-28T00:15:42.116Z,101601.94
2023-02-28T00:20:43.567Z,101593.88
2023-02-28T00:25:45.708Z,101604.22
2023-02-28T00:30:48.020Z,101601.13
2023-02-28T00:35:49.842Z,101601.16
2023-02-28T00:40:51.349Z,101598.47
2023-02-28T00:45:52.906Z,101607.66
2023-02-28T00:50:54.605Z,101603.72
2023-02-28T00:55:56.087Z,101611.09
2023-02-28T01:00:57.501Z,101605.00
2023-02-28T01:05:59.160Z,101610.63
2023-02-28T01:11:11.861Z,101612.47
2023-02-28T01:16:14.074Z,101602.75
2023-02-28T01:21:18.510Z,101611.69
2023-02-28T01:26:22.830Z,101609.19
2023-02-28T01:31:25.043Z,101603.09
2023-02-28T01:36:26.691Z,101598.09
2023-02-28T01:41:31.973Z,101602.28
2023-02-28T01:46:36.169Z,101605.03
2023-02-28T01:51:44.842Z,101599.84
2023-02-28T01:56:50.915Z,101600.81
2023-02-28T02:01:53.371Z,101596.75
2023-02-28T02:06:55.636Z,101586.09
2023-02-28T02:11:57.668Z,101595.88
2023-02-28T02:17:05.727Z,101589.16
2023-02-28T02:22:38.527Z,101581.28
2023-02-28T02:28:15.467Z,101577.91
2023-02-28T02:33:48.133Z,101585.03
2023-02-28T02:39:26.881Z,101573.66
2023-02-28T02:44:32.641Z,101575.47
2023-02-28T02:49:36.466Z,101579.22
2023-02-28T02:54:41.470Z,101580.84
2023-02-28T02:59:43.825Z,101587.22
2023-02-28T03:04:53.603Z,101587.81
2023-02-28T03:09:57.618Z,101587.03
2023-02-28T03:15:08.285Z,101591.13
2023-02-28T03:20:32.082Z,101582.59
2023-02-28T03:25:54.541Z,101584.78
2023-02-28T03:31:04.197Z,101583.22
2023-02-28T03:36:17.833Z,101583.56
2023-02-28T03:41:33.583Z,101585.63
2023-02-28T03:46:39.235Z,101586.47
2023-02-28T03:51:43.747Z,101594.50
2023-02-28T03:56:53.359Z,101593.63
2023-02-28T04:01:55.145Z,101597.84
2023-02-28T04:07:07.305Z,101597.25
2023-02-28T04:12:09.715Z,101595.59
2023-02-28T04:17:11.143Z,101605.06
2023-02-28T04:22:12.769Z,101598.22
2023-02-28T04:27:14.261Z,101607.06
2023-02-28T04:32:15.854Z,101599.41
2023-02-28T04:37:17.454Z,101589.03
2023-02-28T04:42:18.909Z,101594.22
2023-02-28T04:47:20.352Z,101592.34
2023-02-28T04:52:22.016Z,101596.81
2023-02-28T04:57:23.510Z,101598.69
2023-02-28T05:02:25.067Z,101600.28
2023-02-28T05:07:26.558Z,101598.72
2023-02-28T05:12:28.000Z,101597.88
2023-02-28T05:17:29.607Z,101595.16
2023-02-28T05:22:31.094Z,101596.94
2023-02-28T05:27:32.748Z,101613.44
2023-02-28T05:32:34.266Z,101610.41
2023-02-28T05:37:35.850Z,101604.97
2023-02-28T05:42:38.245Z,101610.03
2023-02-28T05:47:50.215Z,101611.69
2023-02-28T05:52:52.258Z,101605.34
2023-02-28T05:57:53.739Z,101612.50
2023-02-28T06:02:55.292Z,101617.91
2023-02-28T06:07:56.857Z,101620.47
2023-02-28T06:13:01.244Z,101628.06
2023-02-28T06:18:02.812Z,101623.59
2023-02-28T06:23:04.313Z,101629.41
2023-02-28T06:28:05.787Z,101624.63
2023-02-28T06:33:07.295Z,101633.38
2023-02-28T06:38:08.769Z,101634.53
2023-02-28T06:43:10.557Z,101633.88
2023-02-28T06:48:11.967Z,101631.41
2023-02-28T06:53:13.937Z,101647.84
2023-02-28T06:58:15.424Z,101652.16
2023-02-28T07:03:16.915Z,101655.75
2023-02-28T07:08:18.446Z,101656.44
2023-02-28T07:13:19.866Z,101653.19
2023-02-28T07:18:21.352Z,101662.84
2023-02-28T07:23:25.892Z,101661.97
2023-02-28T07:28:27.415Z,101655.81
2023-02-28T07:33:28.904Z,101664.47
2023-02-28T07:38:30.394Z,101650.31
2023-02-28T07:43:33.148Z,101645.91
2023-02-28T07:48:35.054Z,101656.25
2023-02-28T07:53:36.965Z,101650.84
2023-02-28T07:58:38.527Z,101652.03
2023-02-28T08:03:40.840Z,101661.09
2023-02-28T08:08:42.437Z,101655.41
2023-02-28T08:13:45.167Z,101642.28
2023-02-28T08:18:46.861Z,101648.88
2023-02-28T08:23:50.286Z,101648.56
2023-02-28T08:28:51.725Z,101644.94
2023-02-28T08:33:53.214Z,101644.38
2023-02-28T08:38:54.722Z,101643.81
2023-02-28T08:43:56.258Z,101645.50
2023-02-28T08:48:58.381Z,101641.84
2023-02-28T08:54:01.232Z,101637.00
2023-02-28T08:59:02.758Z,101634.19
2023-02-28T09:04:04.242Z,101635.38
2023-02-28T09:09:06.047Z,101642.38
2023-02-28T09:14:07.608Z,101638.78
2023-02-28T09:19:12.056Z,101627.66
2023-02-28T09:24:13.523Z,101624.13
2023-02-28T09:29:14.979Z,101626.53
2023-02-28T09:34:16.824Z,101631.72
2023-02-28T09:39:18.283Z,101622.75
2023-02-28T09:44:42.842Z,101625.03
2023-02-28T09:49:48.442Z,101615.06
2023-02-28T09:54:49.984Z,101619.56
2023-02-28T10:00:04.340Z,101621.94
2023-02-28T10:05:31.195Z,101614.69
2023-02-28T10:10:38.925Z,101614.16
2023-02-28T10:15:41.284Z,101612.44
2023-02-28T10:20:43.968Z,101614.25
2023-02-28T10:25:53.200Z,101608.00
2023-02-28T10:30:55.873Z,101628.31
2023-02-28T10:35:57.907Z,101623.69
2023-02-28T10:41:11.443Z,101624.44
2023-02-28T10:46:19.374Z,101634.19
2023-02-28T10:51:23.897Z,101624.31
2023-02-28T10:56:26.302Z,101625.94
2023-02-28T11:01:31.130Z,101610.44
2023-02-28T11:06:35.337Z,101615.09
2023-02-28T11:11:45.897Z,101619.38
2023-02-28T11:16:48.778Z,101615.91
2023-02-28T11:22:02.399Z,101616.44
2023-02-28T11:27:04.025Z,101607.00
2023-02-28T11:32:17.814Z,101605.94
2023-02-28T11:37:28.631Z,101604.53
2023-02-28T11:42:33.166Z,101597.75
2023-02-28T11:47:58.036Z,101588.50
2023-02-28T11:53:11.521Z,101577.56
2023-02-28T11:58:28.079Z,101578.75
2023-02-28T12:03:56.295Z,101583.97
2023-02-28T12:09:03.162Z,101583.19
2023-02-28T12:14:45.450Z,101573.22
2023-02-28T12:20:17.731Z,101608.06
2023-02-28T12:25:55.835Z,101585.09
2023-02-28T12:31:15.301Z,101592.16
2023-02-28T12:36:20.120Z,101576.53
2023-02-28T12:42:10.785Z,101593.09
2023-02-28T12:47:16.373Z,101586.53
2023-02-28T12:52:27.076Z,101565.50
2023-02-28T12:57:53.280Z,101558.50
2023-02-28T13:02:58.028Z,101565.75
2023-02-28T13:08:21.576Z,101552.59
2023-02-28T13:13:28.821Z,101559.59
2023-02-28T13:18:47.512Z,101586.44
2023-02-28T13:24:05.125Z,101573.09
2023-02-28T13:29:15.568Z,101553.78
2023-02-28T13:34:17.526Z,101554.38
2023-02-28T13:39:37.233Z,101550.75
2023-02-28T13:45:04.903Z,101557.75
2023-02-28T13:50:33.055Z,101545.91
2023-02-28T13:55:47.145Z,101555.84
2023-02-28T14:01:04.529Z,101544.31
2023-02-28T14:06:09.981Z,101533.50
2023-02-28T14:11:35.199Z,101523.06
2023-02-28T14:16:47.205Z,101538.47
2023-02-28T14:22:06.614Z,101530.31
2023-02-28T14:27:29.699Z,101528.94
2023-02-28T14:33:00.412Z,101525.16
2023-02-28T14:38:06.574Z,101519.69
2023-02-28T14:43:21.530Z,101513.28
2023-02-28T14:48:26.089Z,101518.75
2023-02-28T14:53:37.132Z,101514.00
2023-02-28T14:58:38.861Z,101518.88
2023-02-28T15:03:41.051Z,101503.31
2023-02-28T15:08:42.609Z,101521.78
2023-02-28T15:13:51.936Z,101511.19
2023-02-28T15:19:22.578Z,101521.50
2023-02-28T15:24:35.224Z,101520.00
2023-02-28T15:29:56.906Z,101531.44
2023-02-28T15:35:05.155Z,101527.06
2023-02-28T15:40:14.837Z,101529.47
2023-02-28T15:45:38.020Z,101539.72
2023-02-28T15:50:39.622Z,101534.75
2023-02-28T15:55:41.118Z,101535.75
2023-02-28T16:00:45.036Z,101536.63
2023-02-28T16:05:46.621Z,101535.38
2023-02-28T16:10:48.169Z,101545.13
2023-02-28T16:15:49.651Z,101539.06
2023-02-28T16:20:51.223Z,101538.97
2023-02-28T16:25:52.746Z,101539.69
2023-02-28T16:30:54.786Z,101547.16
2023-02-28T16:35:56.509Z,101545.34
2023-02-28T16:41:00.568Z,101539.19
2023-02-28T16:46:02.111Z,101560.84
2023-02-28T16:51:03.944Z,101558.81
2023-02-28T16:56:05.788Z,101559.34
2023-02-28T17:01:07.241Z,101572.16
2023-02-28T17:06:24.090Z,101575.06
2023-02-28T17:11:26.949Z,101570.75
2023-02-28T17:16:34.461Z,101573.44
2023-02-28T17:21:36.226Z,101591.16
2023-02-28T17:26:37.677Z,101588.88
2023-02-28T17:31:40.417Z,101597.47
2023-02-28T17:36:42.838Z,101605.84
2023-02-28T17:41:44.347Z,101609.94
2023-02-28T17:46:46.596Z,101614.16
2023-02-28T17:51:48.687Z,101621.41
2023-02-28T17:56:50.256Z,101629.75
2023-02-28T18:01:51.843Z,101633.66
2023-02-28T18:06:54.490Z,101640.56
2023-02-28T18:11:56.862Z,101640.47
2023-02-28T18:16:58.383Z,101643.66
2023-02-28T18:21:59.909Z,101644.50
2023-02-28T18:27:01.420Z,101648.03
2023-02-28T18:32:02.937Z,101652.41
2023-02-28T18:37:04.620Z,101646.63
2023-02-28T18:42:06.105Z,101647.88
2023-02-28T18:47:07.818Z,101649.88
2023-02-28T18:52:09.295Z,101643.28
2023-02-28T18:57:10.759Z,101636.69
2023-02-28T19:02:12.190Z,101639.38
2023-02-28T19:07:13.893Z,101639.75
2023-02-28T19:12:15.370Z,101645.72
2023-02-28T19:17:16.813Z,101645.53
2023-02-28T19:22:18.913Z,101644.19
2023-02-28T19:27:20.605Z,101646.50
2023-02-28T19:32:22.125Z,101647.31
2023-02-28T19:37:23.738Z,101650.66
2023-02-28T19:42:25.649Z,101655.31
2023-02-28T19:47:28.090Z,101652.75
2023-02-28T19:52:29.597Z,101656.94
2023-02-28T19:57:31.112Z,101648.75
2023-02-28T20:02:32.711Z,101657.03
2023-02-28T20:07:34.636Z,101662.28
2023-02-28T20:12:36.100Z,101666.53
2023-02-28T20:17:37.693Z,101665.13
2023-02-28T20:22:39.606Z,101657.19
2023-02-28T20:27:41.342Z,101657.50
2023-02-28T20:32:42.792Z,101650.34
2023-02-28T20:37:44.298Z,101661.97
2023-02-28T20:42:46.104Z,101647.31
2023-02-28T20:47:47.638Z,101650.59
2023-02-28T20:52:49.111Z,101644.16
2023-02-28T20:57:50.664Z,101649.56
2023-02-28T21:02:52.360Z,101651.81
2023-02-28T21:07:53.852Z,101651.06
2023-02-28T21:12:55.461Z,101650.56
2023-02-28T21:17:57.024Z,101638.22
2023-02-28T21:22:58.523Z,101631.38
2023-02-28T21:28:00.114Z,101635.41
2023-02-28T21:33:01.596Z,101630.63
2023-02-28T21:38:03.030Z,101632.94
2023-02-28T21:43:04.461Z,101633.38
2023-02-28T21:48:05.999Z,101629.47
2023-02-28T21:53:07.437Z,101632.31
2023-02-28T21:58:08.880Z,101637.34
2023-02-28T22:03:10.498Z,101633.97
2023-02-28T22:08:12.070Z,101630.03
2023-02-28T22:13:13.586Z,101632.09
2023-02-28T22:18:15.068Z,101638.44
2023-02-28T22:23:16.510Z,101637.41
2023-02-28T22:28:18.095Z,101644.66
2023-02-28T22:33:19.632Z,101654.75
2023-02-28T22:38:21.062Z,101657.63
2023-02-28T22:43:22.516Z,101653.88
2023-02-28T22:48:23.976Z,101657.91
2023-02-28T22:53:25.435Z,101653.50
2023-02-28T22:58:27.405Z,101666.59
2023-02-28T23:03:30.647Z,101670.16
2023-02-28T23:08:32.127Z,101668.22
2023-02-28T23:13:36.718Z,101676.13
2023-02-28T23:18:38.278Z,101679.81
2023-02-28T23:23:39.830Z,101681.13
2023-02-28T23:28:41.411Z,101678.94
2023-02-28T23:33:42.982Z,101684.22
2023-02-28T23:38:47.786Z,101686.34
2023-02-28T23:43:51.101Z,101680.81
2023-02-28T23:48:52.621Z,101679.19
2023-02-28T23:53:54.165Z,101676.19
2023-02-28T23:59:00.180Z,101662.03
